Lorraine — A8IZ3 — position and weather

sailwx.info

Track history (hours):
 
Tides and Currents Weather Stations Pressure Air Temp Water Temp Dewpoint Dewpoint Depression Visibility Wind Speed Wind Dir Waves Ship Positions

Lorraine

Last reported at 2017-Apr-24 16:23 UTC. Time now 2017-Apr-28 18:04 UTC.
Position N 36°01' E 120°13'.

Length 221 m; draft 9.8 m.

Type: Ship. MMSI: 636012905.

Date/timePositionNaut miles runAvg speedWind from/ knotsBaromVisibWave heightAir tempDewpointWater temp
2017-Apr-24 16:23N 36°01' E 120°13'2 5.7
2017-Apr-24 16:00N 36°02' E 120°16'611.1
2017-Apr-24 15:30N 36°01' E 120°22'815.6
2017-Apr-24 15:00N 35°60' E 120°32'17612.8
2017-Apr-24 01:18N 38°38' E 122°06'518.4
2017-Apr-24 01:01N 38°43' E 122°03'918.5
2017-Apr-24 00:30N 38°51' E 121°56'6 0.5
2017-Apr-23 13:20N 38°57' E 121°56'3 8.0
2017-Apr-23 13:00N 38°54' E 121°56'5 9.3
2017-Apr-23 12:30N 38°50' E 121°53'611.6
2017-Apr-23 12:00N 38°45' E 121°50'612.1
2017-Apr-23 11:30N 38°40' E 121°46'712.7
2017-Apr-23 10:57N 38°34' E 121°40'612.7
2017-Apr-23 10:27N 38°31' E 121°34'912.6
2017-Apr-23 09:43N 38°29' E 121°22'71 1.8
2017-Apr-21 17:51N 38°30' E 119°51'412.7
2017-Apr-21 17:30N 38°31' E 119°57'712.8
2017-Apr-21 16:59N 38°31' E 120°05'612.7
2017-Apr-21 16:30N 38°32' E 120°13'612.7
2017-Apr-21 16:00N 38°32' E 120°21'612.7
2017-Apr-21 15:30N 38°33' E 120°29'2112.3
2017-Apr-21 13:49N 38°36' E 120°56'512.7
2017-Apr-21 13:28N 38°34' E 121°01'613.0
2017-Apr-21 13:00N 38°30' E 121°07'612.8
2017-Apr-21 12:30N 38°27' E 121°14'612.6
2017-Apr-21 12:00N 38°25' E 121°21'612.6
2017-Apr-21 11:30N 38°21' E 121°28'713.0
2017-Apr-21 10:59N 38°18' E 121°36'612.4
2017-Apr-21 10:30N 38°15' E 121°42'612.2
2017-Apr-21 10:00N 38°12' E 121°49'612.1
2017-Apr-21 09:30N 38°09' E 121°56'711.9
2017-Apr-21 08:53N 38°05' E 122°04'612.3
2017-Apr-21 08:23N 38°02' E 122°11'512.4
2017-Apr-21 07:56N 37°59' E 122°17'1112.9
2017-Apr-21 07:06N 37°54' E 122°29'113.1
2017-Apr-21 07:00N 37°54' E 122°30'  
2017-Apr-18 06:50N 24°22' E 119°15'613.2
2017-Apr-18 06:25N 24°19' E 119°10'612.9
2017-Apr-18 05:57N 24°15' E 119°05'4313.3
2017-Apr-18 02:44N 23°48' E 118°28'25712.2
2017-Apr-17 05:38N 22°19' E 114°06'  
Track history (hours):
 
Tides and Currents Weather Stations Pressure Air Temp Water Temp Dewpoint Dewpoint Depression Visibility Wind Speed Wind Dir Waves Ship Positions

Lorraine

Last reported at 2017-Apr-24 16:23 UTC. Time now 2017-Apr-28 18:04 UTC.
Position N 36°01' E 120°13'.

Length 221 m; draft 9.8 m.

Type: Ship. MMSI: 636012905.

Date/timePositionNaut miles runAvg speedWind from/ knotsBaromVisibWave heightAir tempDewpointWater temp
2017-Apr-24 16:23N 36°01' E 120°13'2 5.7
2017-Apr-24 16:00N 36°02' E 120°16'611.1
2017-Apr-24 15:30N 36°01' E 120°22'815.6
2017-Apr-24 15:00N 35°60' E 120°32'17612.8
2017-Apr-24 01:18N 38°38' E 122°06'518.4
2017-Apr-24 01:01N 38°43' E 122°03'918.5
2017-Apr-24 00:30N 38°51' E 121°56'6 0.5
2017-Apr-23 13:20N 38°57' E 121°56'3 8.0
2017-Apr-23 13:00N 38°54' E 121°56'5 9.3
2017-Apr-23 12:30N 38°50' E 121°53'611.6
2017-Apr-23 12:00N 38°45' E 121°50'612.1
2017-Apr-23 11:30N 38°40' E 121°46'712.7
2017-Apr-23 10:57N 38°34' E 121°40'612.7
2017-Apr-23 10:27N 38°31' E 121°34'912.6
2017-Apr-23 09:43N 38°29' E 121°22'71 1.8
2017-Apr-21 17:51N 38°30' E 119°51'412.7
2017-Apr-21 17:30N 38°31' E 119°57'712.8
2017-Apr-21 16:59N 38°31' E 120°05'612.7
2017-Apr-21 16:30N 38°32' E 120°13'612.7
2017-Apr-21 16:00N 38°32' E 120°21'612.7
2017-Apr-21 15:30N 38°33' E 120°29'2112.3
2017-Apr-21 13:49N 38°36' E 120°56'512.7
2017-Apr-21 13:28N 38°34' E 121°01'613.0
2017-Apr-21 13:00N 38°30' E 121°07'612.8
2017-Apr-21 12:30N 38°27' E 121°14'612.6
2017-Apr-21 12:00N 38°25' E 121°21'612.6
2017-Apr-21 11:30N 38°21' E 121°28'713.0
2017-Apr-21 10:59N 38°18' E 121°36'612.4
2017-Apr-21 10:30N 38°15' E 121°42'612.2
2017-Apr-21 10:00N 38°12' E 121°49'612.1
2017-Apr-21 09:30N 38°09' E 121°56'711.9
2017-Apr-21 08:53N 38°05' E 122°04'612.3
2017-Apr-21 08:23N 38°02' E 122°11'512.4
2017-Apr-21 07:56N 37°59' E 122°17'1112.9
2017-Apr-21 07:06N 37°54' E 122°29'113.1
2017-Apr-21 07:00N 37°54' E 122°30'  
2017-Apr-18 06:50N 24°22' E 119°15'613.2
2017-Apr-18 06:25N 24°19' E 119°10'612.9
2017-Apr-18 05:57N 24°15' E 119°05'4313.3
2017-Apr-18 02:44N 23°48' E 118°28'25712.2
2017-Apr-17 05:38N 22°19' E 114°06'  

Dump ship's entire track history